PWSweather.com
Personal Weather Stations
Station Observations
KWABLAIN13
Ptl Weather, Blaine, WA

Ptl WeatherBlaine, WA

Lat: 48.997393, Lon: -122.748614

Elevation: 57

Station Type: Davis Advantage Pro 2

http://www.ptlnet.net

Latest ConditionsUpdated 5:30:00 PM PDT Sunday, Mar 26, 2017
Currently Today's Max Today's Min Today's Average
Temperature 46.4°F8.0°C 47.6°F8.7°C 42.5°F5.8°C 43.9°F6.6°C
Dew Point 43.6°F6.4°C 44.1°F6.7°C 38.2°F3.4°C 40.3°F4.6°C
Winds 2.0 mph ESE3.2 kmh ESE 10.0 mph NE16.1 kmh NE - 3.7 mph 6.0 kmh
Wind Gusts 5.0 mph8.0 kmh 13.0 mph20.9 kmh - -
Humidity 90% 94% 83% 87%
Pressure 29.73 in1006.8 mb 30.00 in1015.9 mb 29.72 in1006.4 mb -
Hour Temp Dew Point Humidity Winds Wind Gusts Pressure Precip Precip Rate Daily Precip Total
05:30 PM 46.4°F8.0°C 43.6°F6.4°C 90% 2.0 mph ESE3.2 kmh ESE 5.0 mph8.0 kmh 29.73 in1006.8 mb 0.03 in0.8 mm 0.00 in0.0 mm 0.18 in4.6 mm
05:25 PM 46.4°F8.0°C 43.3°F6.3°C 89% 3.0 mph ENE4.8 kmh ENE 5.0 mph8.0 kmh 29.73 in1006.8 mb 0.03 in0.8 mm 0.00 in0.0 mm 0.18 in4.6 mm
05:10 PM 46.6°F8.1°C 43.5°F6.4°C 89% Calm Calm 8.0 mph12.9 kmh 29.73 in1006.8 mb 0.03 in0.8 mm 0.12 in3.0 mm 0.18 in4.6 mm
05:05 PM 46.7°F8.2°C 43.6°F6.4°C 89% 5.0 mph NE8.0 kmh NE 8.0 mph12.9 kmh 29.73 in1006.8 mb 0.02 in0.5 mm 0.01 in0.3 mm 0.17 in4.3 mm
04:50 PM 46.9°F8.3°C 44.1°F6.7°C 90% 2.0 mph NE3.2 kmh NE 8.0 mph12.9 kmh 29.73 in1006.8 mb 0.01 in0.3 mm 0.00 in0.0 mm 0.16 in4.1 mm
04:45 PM 46.9°F8.3°C 43.8°F6.6°C 89% 4.0 mph NE6.4 kmh NE 8.0 mph12.9 kmh 29.73 in1006.8 mb 0.01 in0.3 mm 0.00 in0.0 mm 0.16 in4.1 mm
04:30 PM 47.0°F8.3°C 43.6°F6.4°C 88% 7.0 mph E11.3 kmh E 7.0 mph11.3 kmh 29.72 in1006.4 mb 0.01 in0.3 mm 0.00 in0.0 mm 0.16 in4.1 mm
04:25 PM 47.1°F8.4°C 43.4°F6.3°C 87% 6.0 mph E9.7 kmh E 8.0 mph12.9 kmh 29.73 in1006.8 mb 0.01 in0.3 mm 0.04 in1.0 mm 0.16 in4.1 mm
04:10 PM 47.3°F8.5°C 43.3°F6.3°C 86% 3.0 mph ENE4.8 kmh ENE 10.0 mph16.1 kmh 29.72 in1006.4 mb 0.00 in0.0 mm 0.00 in0.0 mm 0.15 in3.8 mm
04:05 PM 47.4°F8.6°C 43.4°F6.3°C 86% 5.0 mph ENE8.0 kmh ENE 10.0 mph16.1 kmh 29.73 in1006.8 mb 0.00 in0.0 mm 0.00 in0.0 mm 0.15 in3.8 mm
03:50 PM 47.6°F8.7°C 43.3°F6.3°C 85% 6.0 mph NE9.7 kmh NE 6.0 mph9.7 kmh 29.73 in1006.8 mb 0.00 in0.0 mm 0.00 in0.0 mm 0.15 in3.8 mm
03:45 PM 47.6°F8.7°C 43.3°F6.3°C 85% 3.0 mph NE4.8 kmh NE 6.0 mph9.7 kmh 29.73 in1006.8 mb 0.00 in0.0 mm 0.00 in0.0 mm 0.15 in3.8 mm
03:30 PM 47.6°F8.7°C 43.3°F6.3°C 85% 4.0 mph NE6.4 kmh NE 8.0 mph12.9 kmh 29.73 in1006.8 mb 0.00 in0.0 mm 0.00 in0.0 mm 0.15 in3.8 mm
03:25 PM 47.5°F8.6°C 43.5°F6.4°C 86% 2.0 mph E3.2 kmh E 6.0 mph9.7 kmh 29.73 in1006.8 mb 0.00 in0.0 mm 0.00 in0.0 mm 0.15 in3.8 mm
03:10 PM 47.2°F8.4°C 43.2°F6.2°C 86% 6.0 mph SE9.7 kmh SE 12.0 mph19.3 kmh 29.73 in1006.8 mb 0.00 in0.0 mm 0.00 in0.0 mm 0.15 in3.8 mm
03:05 PM 47.0°F8.3°C 43.0°F6.1°C 86% 7.0 mph ENE11.3 kmh ENE 12.0 mph19.3 kmh 29.73 in1006.8 mb 0.00 in0.0 mm 0.00 in0.0 mm 0.15 in3.8 mm
02:50 PM 47.0°F8.3°C 42.4°F5.8°C 84% 9.0 mph E14.5 kmh E 11.0 mph17.7 kmh 29.73 in1006.8 mb 0.00 in0.0 mm 0.00 in0.0 mm 0.15 in3.8 mm
02:44 PM 47.1°F8.4°C 43.1°F6.2°C 86% 6.0 mph E9.7 kmh E 11.0 mph17.7 kmh 29.73 in1006.8 mb 0.00 in0.0 mm 0.00 in0.0 mm 0.15 in3.8 mm
02:30 PM 46.9°F8.3°C 42.9°F6.1°C 86% 9.0 mph ENE14.5 kmh ENE 13.0 mph20.9 kmh 29.74 in1007.1 mb 0.00 in0.0 mm 0.00 in0.0 mm 0.15 in3.8 mm
02:25 PM 46.9°F8.3°C 43.2°F6.2°C 87% 4.0 mph E6.4 kmh E 13.0 mph20.9 kmh 29.74 in1007.1 mb 0.00 in0.0 mm 0.00 in0.0 mm 0.15 in3.8 mm
02:15 PM 46.5°F8.1°C 44.0°F6.7°C 91% 7.0 mph NE11.3 kmh NE 13.0 mph20.9 kmh 29.74 in1007.1 mb 0.00 in0.0 mm 0.00 in0.0 mm 0.15 in3.8 mm
02:00 PM 45.3°F7.4°C 42.8°F6.0°C 91% 5.0 mph NNE8.0 kmh NNE 13.0 mph20.9 kmh 29.74 in1007.1 mb 0.01 in0.3 mm 0.00 in0.0 mm 0.15 in3.8 mm
01:54 PM 45.2°F7.3°C 42.7°F5.9°C 91% 4.0 mph NE6.4 kmh NE 13.0 mph20.9 kmh 29.74 in1007.1 mb 0.01 in0.3 mm 0.00 in0.0 mm 0.15 in3.8 mm
01:40 PM 44.7°F7.1°C 42.5°F5.8°C 92% 7.0 mph ENE11.3 kmh ENE 11.0 mph17.7 kmh 29.75 in1007.5 mb 0.03 in0.8 mm 0.00 in0.0 mm 0.15 in3.8 mm
01:35 PM 44.5°F6.9°C 42.6°F5.9°C 93% 5.0 mph NNE8.0 kmh NNE 11.0 mph17.7 kmh 29.75 in1007.5 mb 0.03 in0.8 mm 0.00 in0.0 mm 0.15 in3.8 mm
01:20 PM 43.7°F6.5°C 41.5°F5.3°C 92% 8.0 mph N12.9 kmh N 13.0 mph20.9 kmh 29.76 in1007.8 mb 0.05 in1.3 mm 0.00 in0.0 mm 0.15 in3.8 mm
01:14 PM 43.6°F6.4°C 41.7°F5.4°C 93% 4.0 mph NNE6.4 kmh NNE 9.0 mph14.5 kmh 29.76 in1007.8 mb 0.05 in1.3 mm 0.00 in0.0 mm 0.15 in3.8 mm
12:59 PM 43.3°F6.3°C 41.4°F5.2°C 93% 7.0 mph NE11.3 kmh NE 13.0 mph20.9 kmh 29.77 in1008.1 mb 0.07 in1.8 mm 0.15 in3.8 mm 0.15 in3.8 mm
12:55 PM 43.2°F6.2°C 41.3°F5.2°C 93% 8.0 mph NNE12.9 kmh NNE 13.0 mph20.9 kmh 29.77 in1008.1 mb 0.06 in1.5 mm 0.00 in0.0 mm 0.14 in3.6 mm
12:40 PM 43.0°F6.1°C 41.1°F5.1°C 93% 4.0 mph NE6.4 kmh NE 6.0 mph9.7 kmh 29.78 in1008.5 mb 0.07 in1.8 mm 0.00 in0.0 mm 0.14 in3.6 mm
12:35 PM 43.0°F6.1°C 41.4°F5.2°C 94% 8.0 mph ENE12.9 kmh ENE 11.0 mph17.7 kmh 29.78 in1008.5 mb 0.07 in1.8 mm 0.00 in0.0 mm 0.14 in3.6 mm
12:20 PM 42.8°F6.0°C 41.2°F5.1°C 94% 3.0 mph NE4.8 kmh NE 10.0 mph16.1 kmh 29.79 in1008.8 mb 0.08 in2.0 mm 0.12 in3.0 mm 0.14 in3.6 mm
12:15 PM 42.8°F6.0°C 40.9°F4.9°C 93% 10.0 mph NE16.1 kmh NE 10.0 mph16.1 kmh 29.79 in1008.8 mb 0.07 in1.8 mm 0.04 in1.0 mm 0.13 in3.3 mm
12:00 PM 43.0°F6.1°C 41.1°F5.1°C 93% 7.0 mph ENE11.3 kmh ENE 7.0 mph11.3 kmh 29.80 in1009.1 mb 0.06 in1.5 mm 0.00 in0.0 mm 0.12 in3.0 mm
11:55 AM 43.0°F6.1°C 41.1°F5.1°C 93% Calm Calm 7.0 mph11.3 kmh 29.80 in1009.1 mb 0.07 in1.8 mm 0.08 in2.0 mm 0.12 in3.0 mm
11:40 AM 42.9°F6.1°C 40.7°F4.8°C 92% 4.0 mph E6.4 kmh E 5.0 mph8.0 kmh 29.81 in1009.5 mb 0.05 in1.3 mm 0.00 in0.0 mm 0.10 in2.5 mm
11:35 AM 42.9°F6.1°C 40.7°F4.8°C 92% 5.0 mph E8.0 kmh E 9.0 mph14.5 kmh 29.81 in1009.5 mb 0.05 in1.3 mm 0.00 in0.0 mm 0.10 in2.5 mm
11:20 AM 42.7°F5.9°C 40.5°F4.7°C 92% 7.0 mph ESE11.3 kmh ESE 9.0 mph14.5 kmh 29.82 in1009.8 mb 0.07 in1.8 mm 0.00 in0.0 mm 0.10 in2.5 mm
11:14 AM 42.5°F5.8°C 40.3°F4.6°C 92% 8.0 mph NE12.9 kmh NE 8.0 mph12.9 kmh 29.82 in1009.8 mb 0.07 in1.8 mm 0.04 in1.0 mm 0.10 in2.5 mm
11:00 AM 42.5°F5.8°C 40.3°F4.6°C 92% 3.0 mph NE4.8 kmh NE 11.0 mph17.7 kmh 29.82 in1009.8 mb 0.06 in1.5 mm 0.00 in0.0 mm 0.09 in2.3 mm
10:55 AM 42.5°F5.8°C 40.3°F4.6°C 92% 9.0 mph E14.5 kmh E 11.0 mph17.7 kmh 29.82 in1009.8 mb 0.06 in1.5 mm 0.00 in0.0 mm 0.09 in2.3 mm
10:40 AM 42.7°F5.9°C 40.3°F4.6°C 91% 6.0 mph NE9.7 kmh NE 8.0 mph12.9 kmh 29.83 in1010.2 mb 0.08 in2.0 mm 0.12 in3.0 mm 0.09 in2.3 mm
10:35 AM 42.7°F5.9°C 40.3°F4.6°C 91% 4.0 mph ENE6.4 kmh ENE 7.0 mph11.3 kmh 29.83 in1010.2 mb 0.07 in1.8 mm 0.08 in2.0 mm 0.08 in2.0 mm
10:20 AM 42.8°F6.0°C 40.4°F4.7°C 91% 5.0 mph ENE8.0 kmh ENE 5.0 mph8.0 kmh 29.83 in1010.2 mb 0.05 in1.3 mm 0.00 in0.0 mm 0.06 in1.5 mm
10:15 AM 42.8°F6.0°C 40.4°F4.7°C 91% 3.0 mph E4.8 kmh E 7.0 mph11.3 kmh 29.82 in1009.8 mb 0.06 in1.5 mm 0.04 in1.0 mm 0.06 in1.5 mm
10:00 AM 42.7°F5.9°C 40.0°F4.4°C 90% 5.0 mph E8.0 kmh E 6.0 mph9.7 kmh 29.83 in1010.2 mb 0.05 in1.3 mm 0.00 in0.0 mm 0.05 in1.3 mm
09:55 AM 42.7°F5.9°C 40.0°F4.4°C 90% 3.0 mph E4.8 kmh E 6.0 mph9.7 kmh 29.83 in1010.2 mb 0.05 in1.3 mm 0.08 in2.0 mm 0.05 in1.3 mm
09:40 AM 42.7°F5.9°C 40.0°F4.4°C 90% 2.0 mph E3.2 kmh E 2.0 mph3.2 kmh 29.83 in1010.2 mb 0.03 in0.8 mm 0.12 in3.0 mm 0.03 in0.8 mm
09:35 AM 42.7°F5.9°C 39.7°F4.3°C 89% 1.0 mph E1.6 kmh E 2.0 mph3.2 kmh 29.83 in1010.2 mb 0.02 in0.5 mm 0.00 in0.0 mm 0.02 in0.5 mm
09:19 AM 42.8°F6.0°C 39.5°F4.2°C 88% 2.0 mph SE3.2 kmh SE 6.0 mph9.7 kmh 29.83 in1010.2 mb 0.02 in0.5 mm 0.15 in3.8 mm 0.02 in0.5 mm
09:15 AM 42.9°F6.1°C 39.3°F4.1°C 87% 3.0 mph E4.8 kmh E 6.0 mph9.7 kmh 29.83 in1010.2 mb 0.01 in0.3 mm 0.00 in0.0 mm 0.01 in0.3 mm
09:00 AM 43.3°F6.3°C 39.4°F4.1°C 86% 3.0 mph ESE4.8 kmh ESE 3.0 mph4.8 kmh 29.83 in1010.2 mb 0.01 in0.3 mm 0.00 in0.0 mm 0.01 in0.3 mm
08:55 AM 43.3°F6.3°C 39.1°F3.9°C 85% 1.0 mph E1.6 kmh E 4.0 mph6.4 kmh 29.83 in1010.2 mb 0.01 in0.3 mm 0.04 in1.0 mm 0.01 in0.3 mm
08:40 AM 43.3°F6.3°C 38.5°F3.6°C 83% 2.0 mph E3.2 kmh E 7.0 mph11.3 kmh 29.83 in1010.2 mb 0.00 in0.0 mm 0.00 in0.0 mm 0.00 in0.0 mm
08:35 AM 43.3°F6.3°C 38.5°F3.6°C 83% 2.0 mph E3.2 kmh E 7.0 mph11.3 kmh 29.83 in1010.2 mb 0.00 in0.0 mm 0.00 in0.0 mm 0.00 in0.0 mm
08:20 AM 43.2°F6.2°C 38.4°F3.6°C 83% 4.0 mph ENE6.4 kmh ENE 6.0 mph9.7 kmh 29.83 in1010.2 mb 0.00 in0.0 mm 0.00 in0.0 mm 0.00 in0.0 mm
08:15 AM 43.1°F6.2°C 38.3°F3.5°C 83% 3.0 mph E4.8 kmh E 6.0 mph9.7 kmh 29.83 in1010.2 mb 0.00 in0.0 mm 0.00 in0.0 mm 0.00 in0.0 mm
07:59 AM 42.8°F6.0°C 38.3°F3.5°C 84% 4.0 mph E6.4 kmh E 7.0 mph11.3 kmh 29.83 in1010.2 mb 0.00 in0.0 mm 0.00 in0.0 mm 0.00 in0.0 mm
07:55 AM 42.8°F6.0°C 38.3°F3.5°C 84% 4.0 mph ENE6.4 kmh ENE 5.0 mph8.0 kmh 29.82 in1009.8 mb 0.00 in0.0 mm 0.00 in0.0 mm 0.00 in0.0 mm
07:40 AM 42.9°F6.1°C 38.4°F3.6°C 84% 3.0 mph NE4.8 kmh NE 8.0 mph12.9 kmh 29.83 in1010.2 mb 0.00 in0.0 mm 0.00 in0.0 mm 0.00 in0.0 mm
07:35 AM 42.9°F6.1°C 38.4°F3.6°C 84% 5.0 mph N8.0 kmh N 8.0 mph12.9 kmh 29.83 in1010.2 mb 0.00 in0.0 mm 0.00 in0.0 mm 0.00 in0.0 mm
07:20 AM 43.0°F6.1°C 38.2°F3.4°C 83% 5.0 mph ENE8.0 kmh ENE 8.0 mph12.9 kmh 29.83 in1010.2 mb 0.00 in0.0 mm 0.00 in0.0 mm 0.00 in0.0 mm
07:15 AM 43.1°F6.2°C 38.3°F3.5°C 83% 7.0 mph ENE11.3 kmh ENE 8.0 mph12.9 kmh 29.83 in1010.2 mb 0.00 in0.0 mm 0.00 in0.0 mm 0.00 in0.0 mm
07:00 AM 43.0°F6.1°C 38.2°F3.4°C 83% 7.0 mph ENE11.3 kmh ENE 11.0 mph17.7 kmh 29.84 in1010.5 mb 0.00 in0.0 mm 0.00 in0.0 mm 0.00 in0.0 mm
06:55 AM 43.0°F6.1°C 38.2°F3.4°C 83% 5.0 mph NE8.0 kmh NE 7.0 mph11.3 kmh 29.84 in1010.5 mb 0.00 in0.0 mm 0.00 in0.0 mm 0.00 in0.0 mm
06:40 AM 42.9°F6.1°C 38.4°F3.6°C 84% 3.0 mph E4.8 kmh E 7.0 mph11.3 kmh 29.84 in1010.5 mb 0.00 in0.0 mm 0.00 in0.0 mm 0.00 in0.0 mm
06:35 AM 43.0°F6.1°C 38.2°F3.4°C 83% 6.0 mph ENE9.7 kmh ENE 7.0 mph11.3 kmh 29.84 in1010.5 mb 0.00 in0.0 mm 0.00 in0.0 mm 0.00 in0.0 mm
06:20 AM 43.0°F6.1°C 38.2°F3.4°C 83% 1.0 mph E1.6 kmh E 2.0 mph3.2 kmh 29.85 in1010.8 mb 0.00 in0.0 mm 0.00 in0.0 mm 0.00 in0.0 mm
06:15 AM 43.1°F6.2°C 38.3°F3.5°C 83% 4.0 mph ENE6.4 kmh ENE 9.0 mph14.5 kmh 29.85 in1010.8 mb 0.00 in0.0 mm 0.00 in0.0 mm 0.00 in0.0 mm
05:59 AM 43.1°F6.2°C 38.3°F3.5°C 83% 4.0 mph NE6.4 kmh NE 7.0 mph11.3 kmh 29.86 in1011.2 mb 0.00 in0.0 mm 0.00 in0.0 mm 0.00 in0.0 mm
05:55 AM 43.1°F6.2°C 38.3°F3.5°C 83% 3.0 mph NE4.8 kmh NE 5.0 mph8.0 kmh 29.86 in1011.2 mb 0.00 in0.0 mm 0.00 in0.0 mm 0.00 in0.0 mm
05:40 AM 43.0°F6.1°C 38.2°F3.4°C 83% 5.0 mph NE8.0 kmh NE 5.0 mph8.0 kmh 29.86 in1011.2 mb 0.00 in0.0 mm 0.00 in0.0 mm 0.00 in0.0 mm
05:35 AM 42.9°F6.1°C 38.4°F3.6°C 84% 2.0 mph ENE3.2 kmh ENE 8.0 mph12.9 kmh 29.86 in1011.2 mb 0.00 in0.0 mm 0.00 in0.0 mm 0.00 in0.0 mm
05:20 AM 42.7°F5.9°C 38.5°F3.6°C 85% 3.0 mph E4.8 kmh E 5.0 mph8.0 kmh 29.87 in1011.5 mb 0.00 in0.0 mm 0.00 in0.0 mm 0.00 in0.0 mm
05:15 AM 42.7°F5.9°C 38.5°F3.6°C 85% 1.0 mph E1.6 kmh E 4.0 mph6.4 kmh 29.88 in1011.9 mb 0.00 in0.0 mm 0.00 in0.0 mm 0.00 in0.0 mm
05:00 AM 42.7°F5.9°C 38.5°F3.6°C 85% 2.0 mph ENE3.2 kmh ENE 4.0 mph6.4 kmh 29.88 in1011.9 mb 0.00 in0.0 mm 0.00 in0.0 mm 0.00 in0.0 mm
04:55 AM 42.8°F6.0°C 38.6°F3.7°C 85% 2.0 mph NE3.2 kmh NE 4.0 mph6.4 kmh 29.88 in1011.9 mb 0.00 in0.0 mm 0.00 in0.0 mm 0.00 in0.0 mm
04:40 AM 42.9°F6.1°C 38.7°F3.7°C 85% 5.0 mph N8.0 kmh N 8.0 mph12.9 kmh 29.90 in1012.5 mb 0.00 in0.0 mm 0.00 in0.0 mm 0.00 in0.0 mm
04:35 AM 42.9°F6.1°C 38.7°F3.7°C 85% 3.0 mph N4.8 kmh N 7.0 mph11.3 kmh 29.90 in1012.5 mb 0.00 in0.0 mm 0.00 in0.0 mm 0.00 in0.0 mm
04:20 AM 42.7°F5.9°C 38.8°F3.8°C 86% 1.0 mph NE1.6 kmh NE 3.0 mph4.8 kmh 29.91 in1012.9 mb 0.00 in0.0 mm 0.00 in0.0 mm 0.00 in0.0 mm
04:15 AM 42.7°F5.9°C 38.8°F3.8°C 86% 2.0 mph NE3.2 kmh NE 7.0 mph11.3 kmh 29.91 in1012.9 mb 0.00 in0.0 mm 0.00 in0.0 mm 0.00 in0.0 mm
03:59 AM 42.9°F6.1°C 39.0°F3.9°C 86% 3.0 mph NE4.8 kmh NE 6.0 mph9.7 kmh 29.92 in1013.2 mb 0.00 in0.0 mm 0.00 in0.0 mm 0.00 in0.0 mm
03:55 AM 42.9°F6.1°C 39.0°F3.9°C 86% 2.0 mph NE3.2 kmh NE 4.0 mph6.4 kmh 29.93 in1013.5 mb 0.00 in0.0 mm 0.00 in0.0 mm 0.00 in0.0 mm
03:40 AM 42.9°F6.1°C 39.0°F3.9°C 86% 1.0 mph NE1.6 kmh NE 4.0 mph6.4 kmh 29.93 in1013.5 mb 0.00 in0.0 mm 0.00 in0.0 mm 0.00 in0.0 mm
03:35 AM 43.0°F6.1°C 38.8°F3.8°C 85% 2.0 mph NE3.2 kmh NE 4.0 mph6.4 kmh 29.94 in1013.9 mb 0.00 in0.0 mm 0.00 in0.0 mm 0.00 in0.0 mm
03:19 AM 43.1°F6.2°C 38.9°F3.8°C 85% 1.0 mph NE1.6 kmh NE 4.0 mph6.4 kmh 29.95 in1014.2 mb 0.00 in0.0 mm 0.00 in0.0 mm 0.00 in0.0 mm
03:15 AM 43.2°F6.2°C 39.0°F3.9°C 85% 2.0 mph NE3.2 kmh NE 4.0 mph6.4 kmh 29.95 in1014.2 mb 0.00 in0.0 mm 0.00 in0.0 mm 0.00 in0.0 mm
02:59 AM 43.3°F6.3°C 38.8°F3.8°C 84% 2.0 mph ENE3.2 kmh ENE 3.0 mph4.8 kmh 29.96 in1014.6 mb 0.00 in0.0 mm 0.00 in0.0 mm 0.00 in0.0 mm
02:55 AM 43.2°F6.2°C 39.0°F3.9°C 85% 3.0 mph ENE4.8 kmh ENE 4.0 mph6.4 kmh 29.96 in1014.6 mb 0.00 in0.0 mm 0.00 in0.0 mm 0.00 in0.0 mm
02:39 AM 43.2°F6.2°C 38.7°F3.7°C 84% 2.0 mph ENE3.2 kmh ENE 6.0 mph9.7 kmh 29.96 in1014.6 mb 0.00 in0.0 mm 0.00 in0.0 mm 0.00 in0.0 mm
02:35 AM 43.2°F6.2°C 38.7°F3.7°C 84% 3.0 mph E4.8 kmh E 6.0 mph9.7 kmh 29.96 in1014.6 mb 0.00 in0.0 mm 0.00 in0.0 mm 0.00 in0.0 mm
02:15 AM 43.3°F6.3°C 39.1°F3.9°C 85% Calm Calm 3.0 mph4.8 kmh 29.97 in1014.9 mb 0.00 in0.0 mm 0.00 in0.0 mm 0.00 in0.0 mm
01:59 AM 43.3°F6.3°C 38.8°F3.8°C 84% 1.0 mph ENE1.6 kmh ENE 4.0 mph6.4 kmh 29.97 in1014.9 mb 0.00 in0.0 mm 0.00 in0.0 mm 0.00 in0.0 mm
01:55 AM 43.3°F6.3°C 38.8°F3.8°C 84% 1.0 mph ENE1.6 kmh ENE 4.0 mph6.4 kmh 29.97 in1014.9 mb 0.00 in0.0 mm 0.00 in0.0 mm 0.00 in0.0 mm
01:40 AM 43.3°F6.3°C 38.8°F3.8°C 84% 2.0 mph E3.2 kmh E 3.0 mph4.8 kmh 29.98 in1015.2 mb 0.00 in0.0 mm 0.00 in0.0 mm 0.00 in0.0 mm
01:35 AM 43.2°F6.2°C 38.7°F3.7°C 84% 2.0 mph E3.2 kmh E 5.0 mph8.0 kmh 29.98 in1015.2 mb 0.00 in0.0 mm 0.00 in0.0 mm 0.00 in0.0 mm
01:20 AM 43.4°F6.3°C 38.9°F3.8°C 84% Calm Calm 2.0 mph3.2 kmh 29.98 in1015.2 mb 0.00 in0.0 mm 0.00 in0.0 mm 0.00 in0.0 mm
01:15 AM 43.6°F6.4°C 39.1°F3.9°C 84% Calm Calm 2.0 mph3.2 kmh 29.98 in1015.2 mb 0.00 in0.0 mm 0.00 in0.0 mm 0.00 in0.0 mm
01:00 AM 43.7°F6.5°C 39.2°F4.0°C 84% 1.0 mph E1.6 kmh E 5.0 mph8.0 kmh 29.99 in1015.6 mb 0.00 in0.0 mm 0.00 in0.0 mm 0.00 in0.0 mm
12:55 AM 43.8°F6.6°C 39.3°F4.1°C 84% 2.0 mph ENE3.2 kmh ENE 4.0 mph6.4 kmh 29.99 in1015.6 mb 0.00 in0.0 mm 0.00 in0.0 mm 0.00 in0.0 mm
12:40 AM 43.9°F6.6°C 39.4°F4.1°C 84% Calm Calm 3.0 mph4.8 kmh 30.00 in1015.9 mb 0.00 in0.0 mm 0.00 in0.0 mm 0.00 in0.0 mm
12:35 AM 44.0°F6.7°C 39.5°F4.2°C 84% 1.0 mph NE1.6 kmh NE 3.0 mph4.8 kmh 30.00 in1015.9 mb 0.00 in0.0 mm 0.00 in0.0 mm 0.00 in0.0 mm
12:20 AM 44.2°F6.8°C 39.7°F4.3°C 84% 2.0 mph NE3.2 kmh NE 4.0 mph6.4 kmh 30.00 in1015.9 mb 0.00 in0.0 mm 0.00 in0.0 mm 0.00 in0.0 mm
12:14 AM 44.2°F6.8°C 39.4°F4.1°C 83% 2.0 mph ESE3.2 kmh ESE 2.0 mph3.2 kmh 30.00 in1015.9 mb 0.00 in0.0 mm 0.00 in0.0 mm 0.00 in0.0 mm